Time;durP1;ratioP1;P1;durP2;ratioP2;P2;SDS_P1;SDS_P2;PMS_P1;PMS_P2;Temp;Humidity;BMP_temperature;BMP_pressure;BME280_temperature;BME280_humidity;BME280_pressure;Samples;Min_cycle;Max_cycle;Signal;HPM_P1;HPM_P2
2020/12/12 00:00:09;;;;;;;14.43;7.03;;;;;;;1.99;75.46;99580.47;5084431;28;20043;-72
2020/12/12 00:02:34;;;;;;;17.65;7.93;;;;;;;1.94;75.50;99572.72;5085681;28;20036;-73
2020/12/12 00:05:00;;;;;;;10.55;5.13;;;;;;;1.94;75.99;99571.84;5085999;28;20039;-73
2020/12/12 00:07:25;;;;;;;13.20;5.07;;;;;;;1.95;75.70;99584.66;5086066;28;20096;-72
2020/12/12 00:09:51;;;;;;;15.13;7.35;;;;;;;1.97;75.60;99574.44;5085680;28;20020;-72
2020/12/12 00:12:17;;;;;;;16.05;9.00;;;;;;;1.94;75.66;99582.97;5085292;28;20032;-73
2020/12/12 00:14:43;;;;;;;11.18;6.72;;;;;;;2.00;75.55;99571.09;5085345;28;20044;-73
2020/12/12 00:17:08;;;;;;;9.75;4.55;;;;;;;2.08;75.23;99583.13;5085680;28;20032;-72
2020/12/12 00:19:34;;;;;;;16.08;7.22;;;;;;;2.02;75.13;99590.75;5085280;28;20025;-73
2020/12/12 00:21:59;;;;;;;14.43;6.82;;;;;;;1.95;75.52;99574.44;5085328;28;20024;-74
2020/12/12 00:24:25;;;;;;;15.77;8.70;;;;;;;1.86;76.08;99584.53;5085232;28;20027;-73
2020/12/12 00:26:50;;;;;;;10.65;5.65;;;;;;;1.89;75.92;99579.47;5084897;28;20021;-75
2020/12/12 00:29:16;;;;;;;13.77;6.70;;;;;;;1.96;75.54;99578.72;5085118;28;20029;-74
2020/12/12 00:31:44;;;;;;;12.07;5.57;;;;;;;1.98;75.48;99578.75;5084867;28;20124;-74
2020/12/12 00:34:10;;;;;;;14.35;8.35;;;;;;;1.89;75.39;99578.59;5084813;28;20536;-75
2020/12/12 00:36:41;;;;;;;8.13;4.63;;;;;;;1.88;75.95;99572.63;5085146;28;20047;-74
2020/12/12 00:39:07;;;;;;;11.43;6.40;;;;;;;2.11;75.02;99579.75;5085226;28;20024;-75
2020/12/12 00:41:36;;;;;;;15.65;7.60;;;;;;;1.87;75.69;99570.06;5084617;28;20028;-74
2020/12/12 00:44:06;;;;;;;17.05;8.27;;;;;;;1.95;75.72;99591.50;5084797;28;20043;-75
2020/12/12 00:46:32;;;;;;;14.70;7.03;;;;;;;1.82;75.87;99578.50;5083434;28;20031;-75
2020/12/12 00:48:58;;;;;;;15.38;7.78;;;;;;;1.92;75.84;99587.19;5083167;28;20593;-76
2020/12/12 00:51:23;;;;;;;9.50;5.85;;;;;;;1.95;75.93;99604.31;5084653;28;20044;-75
2020/12/12 00:53:51;;;;;;;16.42;8.07;;;;;;;1.88;76.28;99593.13;5083214;28;20016;-74
2020/12/12 00:56:17;;;;;;;14.85;6.53;;;;;;;1.90;76.27;99601.66;5084526;28;20029;-75
2020/12/12 00:58:43;;;;;;;12.18;6.82;;;;;;;1.88;76.49;99608.47;5083307;28;20017;-76
2020/12/12 01:01:09;;;;;;;12.10;6.03;;;;;;;1.93;76.38;99598.31;5084329;28;20055;-74
2020/12/12 01:03:35;;;;;;;9.65;4.75;;;;;;;1.90;76.50;99599.09;5084542;28;20410;-76
2020/12/12 01:06:01;;;;;;;16.40;8.13;;;;;;;1.88;76.62;99593.13;5084602;28;20036;-76
2020/12/12 01:08:26;;;;;;;12.90;6.00;;;;;;;1.93;76.52;99599.13;5084721;28;20038;-75
2020/12/12 01:10:52;;;;;;;16.08;8.20;;;;;;;1.95;76.41;99600.03;5084079;28;20051;-74
2020/12/12 01:13:17;;;;;;;17.13;9.15;;;;;;;1.92;76.63;99596.56;5084368;28;20050;-74
2020/12/12 01:15:43;;;;;;;17.30;8.05;;;;;;;1.90;76.79;99599.09;5084180;28;20021;-75
2020/12/12 01:18:09;;;;;;;9.10;4.40;;;;;;;1.88;77.12;99603.34;5084295;28;20051;-75
2020/12/12 01:20:34;;;;;;;15.90;8.43;;;;;;;1.91;77.03;99607.66;5083854;28;20029;-73
2020/12/12 01:22:59;;;;;;;17.02;6.88;;;;;;;1.90;77.09;99605.94;5084012;28;20047;-75
2020/12/12 01:25:25;;;;;;;14.23;7.32;;;;;;;1.94;76.75;99597.44;5084169;28;20028;-75
2020/12/12 01:27:50;;;;;;;11.40;5.72;;;;;;;1.99;76.61;99595.81;5083840;28;20017;-75
2020/12/12 01:30:16;;;;;;;17.33;7.97;;;;;;;1.96;76.83;99596.66;5083917;28;20020;-73
2020/12/12 01:32:41;;;;;;;11.63;5.70;;;;;;;1.95;77.03;99594.91;5083976;28;20100;-75
2020/12/12 01:35:06;;;;;;;15.52;7.43;;;;;;;1.95;77.00;99584.66;5083861;28;20032;-75
2020/12/12 01:37:32;;;;;;;17.17;8.05;;;;;;;2.01;76.83;99598.41;5083941;28;20024;-75
2020/12/12 01:39:57;;;;;;;14.93;7.70;;;;;;;1.95;77.03;99586.41;5084041;28;20016;-75
2020/12/12 01:42:22;;;;;;;10.52;4.70;;;;;;;1.99;76.94;99580.47;5083518;28;20321;-75
2020/12/12 01:44:48;;;;;;;12.85;7.57;;;;;;;1.96;76.95;99590.66;5083653;28;20029;-75
2020/12/12 01:47:14;;;;;;;14.85;8.07;;;;;;;2.01;76.83;99596.72;5082815;28;20024;-74
2020/12/12 01:49:39;;;;;;;17.10;8.30;;;;;;;1.98;76.90;99589.84;5083833;28;20028;-75
2020/12/12 01:52:05;;;;;;;19.38;8.65;;;;;;;2.04;76.80;99588.19;5083362;28;20073;-74
2020/12/12 01:54:31;;;;;;;13.23;7.00;;;;;;;2.02;76.93;99598.44;5083598;28;20078;-75
2020/12/12 01:57:01;;;;;;;12.35;6.20;;;;;;;2.02;76.81;99593.31;5083308;28;20027;-75
2020/12/12 01:59:28;;;;;;;14.38;6.97;;;;;;;2.02;76.75;99590.75;5083675;28;20012;-75
2020/12/12 02:01:56;;;;;;;15.32;7.95;;;;;;;2.03;76.82;99589.88;5083149;28;20052;-74
2020/12/12 02:04:23;;;;;;;18.90;9.35;;;;;;;2.01;77.11;99591.59;5082130;28;20634;-75
2020/12/12 02:06:50;;;;;;;14.60;6.43;;;;;;;2.02;77.01;99597.56;5083272;28;20520;-76
2020/12/12 02:09:15;;;;;;;14.65;7.70;;;;;;;2.05;76.90;99592.47;5083537;28;20029;-74
2020/12/12 02:11:41;;;;;;;15.23;7.70;;;;;;;2.06;76.96;99595.06;5083115;28;20020;-75
2020/12/12 02:14:09;;;;;;;11.55;6.55;;;;;;;2.08;76.83;99595.06;5083287;28;20055;-75
2020/12/12 02:16:50;;;;;;;9.80;6.35;;;;;;;2.02;76.77;99590.75;5083539;28;20032;-75
2020/12/12 02:19:16;;;;;;;17.02;8.40;;;;;;;2.05;76.87;99595.91;5083310;28;20032;-75
2020/12/12 02:21:41;;;;;;;15.02;7.97;;;;;;;2.05;76.77;99600.16;5083264;28;20092;-75
2020/12/12 02:24:06;;;;;;;15.13;7.43;;;;;;;2.02;77.08;99600.13;5083400;28;20025;-75
2020/12/12 02:26:32;;;;;;;14.88;7.43;;;;;;;2.03;77.11;99602.69;5082982;28;20024;-75
2020/12/12 02:28:57;;;;;;;14.27;6.40;;;;;;;2.06;77.15;99601.91;5083413;28;20021;-74
2020/12/12 02:31:26;;;;;;;13.80;7.13;;;;;;;2.08;76.65;99597.63;5081694;28;20360;-74
2020/12/12 02:33:51;;;;;;;15.13;7.32;;;;;;;2.04;76.92;99593.31;5082956;28;20012;-74
2020/12/12 02:36:17;;;;;;;13.70;6.50;;;;;;;2.08;76.96;99595.06;5083120;28;20034;-75
2020/12/12 02:38:43;;;;;;;15.80;6.57;;;;;;;2.10;76.81;99594.28;5083016;28;20043;-75
2020/12/12 02:41:09;;;;;;;15.52;9.02;;;;;;;2.06;76.97;99592.50;5082867;28;20029;-74
2020/12/12 02:43:34;;;;;;;15.25;8.48;;;;;;;2.04;77.18;99586.50;5082930;28;20021;-74
2020/12/12 02:46:00;;;;;;;12.18;6.95;;;;;;;2.00;77.26;99589.00;5082965;28;20031;-75
2020/12/12 02:48:25;;;;;;;15.90;7.65;;;;;;;2.11;76.94;99605.34;5083091;28;20039;-74
2020/12/12 02:50:50;;;;;;;7.07;3.90;;;;;;;2.09;77.16;99596.81;5082840;28;20021;-75
2020/12/12 02:53:16;;;;;;;15.93;7.32;;;;;;;2.06;77.08;99591.66;5083034;28;20363;-75
2020/12/12 02:55:41;;;;;;;12.93;6.78;;;;;;;2.12;77.15;99601.97;5083242;28;20021;-75
2020/12/12 02:58:06;;;;;;;18.13;8.88;;;;;;;2.11;77.23;99600.22;5084192;28;20017;-75
2020/12/12 03:00:32;;;;;;;13.82;7.90;;;;;;;2.14;77.22;99599.44;5085052;28;20024;-74
2020/12/12 03:02:58;;;;;;;16.48;8.00;;;;;;;2.15;77.20;99596.88;5086672;28;20063;-74
2020/12/12 03:05:23;;;;;;;16.90;8.90;;;;;;;2.21;77.13;99590.97;5086980;28;20025;-73
2020/12/12 03:07:48;;;;;;;11.50;6.75;;;;;;;2.21;77.04;99593.53;5086903;28;20103;-74
2020/12/12 03:10:14;;;;;;;14.00;7.50;;;;;;;2.20;77.05;99592.69;5086912;28;20025;-74
2020/12/12 03:12:39;;;;;;;15.98;8.73;;;;;;;2.21;77.15;99596.09;5085832;28;20036;-74
2020/12/12 03:15:10;;;;;;;17.15;7.82;;;;;;;2.19;77.28;99590.13;5086568;28;20086;-74
2020/12/12 03:17:35;;;;;;;16.13;8.10;;;;;;;2.21;77.20;99591.84;5086492;28;20022;-74
2020/12/12 03:20:02;;;;;;;16.95;8.98;;;;;;;2.22;77.18;99583.31;5086544;28;20072;-74
2020/12/12 03:22:27;;;;;;;15.80;8.32;;;;;;;2.16;77.07;99573.00;5086446;28;20501;-74
2020/12/12 03:24:53;;;;;;;14.70;8.15;;;;;;;2.24;77.09;99585.88;5084842;28;20025;-74
2020/12/12 03:27:18;;;;;;;19.25;8.80;;;;;;;2.17;77.05;99572.13;5086104;28;20048;-74
2020/12/12 03:29:43;;;;;;;13.45;6.00;;;;;;;2.19;77.40;99572.19;5086247;28;20088;-73
2020/12/12 03:32:10;;;;;;;16.65;7.93;;;;;;;2.22;77.18;99593.56;5084732;28;20039;-74
2020/12/12 03:34:37;;;;;;;13.65;6.70;;;;;;;2.22;77.16;99588.44;5086133;28;20027;-74
2020/12/12 03:37:03;;;;;;;15.43;8.57;;;;;;;2.23;77.16;99590.16;5086372;28;20029;-74
2020/12/12 03:39:29;;;;;;;18.15;8.98;;;;;;;2.21;77.20;99581.59;5086052;28;20244;-74
2020/12/12 03:41:54;;;;;;;17.42;8.13;;;;;;;2.26;77.18;99579.09;5085673;28;20025;-74
2020/12/12 03:44:19;;;;;;;15.63;8.07;;;;;;;2.27;77.14;99587.66;5085964;28;20039;-74
2020/12/12 03:46:45;;;;;;;18.85;10.50;;;;;;;2.23;77.18;99586.75;5085815;28;20119;-74
2020/12/12 03:49:10;;;;;;;21.67;9.88;;;;;;;2.27;77.24;99593.59;5085985;28;20028;-74
2020/12/12 03:51:36;;;;;;;19.98;9.98;;;;;;;2.26;77.11;99580.78;5085565;28;20025;-74
2020/12/12 03:54:01;;;;;;;17.05;7.15;;;;;;;2.30;77.20;99583.41;5086199;28;20081;-74
2020/12/12 03:56:27;;;;;;;17.50;9.48;;;;;;;2.29;77.09;99583.38;5085643;28;20024;-74
2020/12/12 03:58:52;;;;;;;16.38;8.15;;;;;;;2.29;77.44;99586.81;5085807;28;20497;-74
2020/12/12 04:01:17;;;;;;;16.40;8.68;;;;;;;2.26;77.38;99573.09;5085782;28;20040;-74
2020/12/12 04:03:43;;;;;;;12.23;6.22;;;;;;;2.35;77.14;99579.19;5085431;28;20490;-75
2020/12/12 04:06:08;;;;;;;13.40;6.10;;;;;;;2.37;77.12;99586.03;5085751;28;20020;-75
2020/12/12 04:08:33;;;;;;;16.70;9.27;;;;;;;2.31;77.20;99581.72;5085503;28;20029;-75
2020/12/12 04:11:03;;;;;;;19.90;10.85;;;;;;;2.35;77.27;99592.00;5084673;28;20024;-74
2020/12/12 04:13:29;;;;;;;12.88;6.78;;;;;;;2.37;77.44;99593.72;5085507;28;20035;-75
2020/12/12 04:15:54;;;;;;;22.63;10.43;;;;;;;2.38;77.43;99592.91;5084071;28;20024;-75
2020/12/12 04:18:20;;;;;;;20.20;10.48;;;;;;;2.41;77.39;99588.66;5085340;28;20154;-74
2020/12/12 04:20:48;;;;;;;21.35;11.45;;;;;;;2.40;77.52;99578.38;5085060;28;20100;-74
2020/12/12 04:23:13;;;;;;;18.23;9.73;;;;;;;2.43;77.31;99584.41;5085243;28;20035;-75
2020/12/12 04:25:39;;;;;;;21.58;10.88;;;;;;;2.43;77.45;99581.84;5085311;28;20025;-74
2020/12/12 04:28:05;;;;;;;19.90;10.43;;;;;;;2.48;77.24;99575.09;5085019;28;20036;-74
2020/12/12 04:30:30;;;;;;;16.30;9.02;;;;;;;2.46;77.25;99571.63;5084896;28;20089;-72
2020/12/12 04:32:55;;;;;;;20.15;10.52;;;;;;;2.49;77.05;99570.81;5085184;28;20020;-74
2020/12/12 04:35:21;;;;;;;20.05;8.75;;;;;;;2.51;77.22;99586.22;5085033;28;20031;-74
2020/12/12 04:37:46;;;;;;;19.45;8.68;;;;;;;2.51;77.18;99573.41;5085117;28;20012;-74
2020/12/12 04:40:13;;;;;;;14.68;7.88;;;;;;;2.51;77.28;99579.38;5085025;28;20036;-74
2020/12/12 04:42:42;;;;;;;20.55;10.02;;;;;;;2.52;77.27;99575.97;5086533;28;20092;-74
2020/12/12 04:45:08;;;;;;;15.25;7.93;;;;;;;2.47;77.52;99572.50;5085053;28;20036;-75
2020/12/12 04:47:34;;;;;;;15.27;6.80;;;;;;;2.55;77.21;99577.72;5085176;28;20028;-73
2020/12/12 04:50:00;;;;;;;18.30;8.77;;;;;;;2.56;77.20;99576.84;5094562;28;20005;-75
2020/12/12 04:52:32;;;;;;;10.10;5.35;;;;;;;2.56;77.49;99571.72;5098067;28;20024;-75
2020/12/12 04:55:05;;;;;;;15.73;9.05;;;;;;;2.57;77.38;99569.19;5097450;28;20305;-74
2020/12/12 04:57:33;;;;;;;19.77;9.52;;;;;;;2.58;77.46;99570.06;5089921;28;20024;-74
2020/12/12 05:00:00;;;;;;;18.50;9.15;;;;;;;2.53;77.36;99564.00;5085196;28;20024;-75
2020/12/12 05:02:26;;;;;;;18.95;9.10;;;;;;;2.59;77.42;99582.00;5083167;28;20044;-74
2020/12/12 05:04:51;;;;;;;19.80;11.30;;;;;;;2.59;77.55;99571.75;5084520;28;20051;-75
2020/12/12 05:07:17;;;;;;;19.23;9.27;;;;;;;2.60;77.38;99574.34;5084575;28;20078;-75
2020/12/12 05:09:44;;;;;;;18.58;10.70;;;;;;;2.58;77.35;99563.25;5082950;28;20084;-74
2020/12/12 05:12:13;;;;;;;21.60;11.40;;;;;;;2.58;77.46;99573.47;5084099;28;20028;-74
2020/12/12 05:14:38;;;;;;;19.00;9.82;;;;;;;2.59;77.46;99571.75;5083059;28;20024;-75
2020/12/12 05:17:03;;;;;;;17.65;8.40;;;;;;;2.56;77.49;99566.59;5084227;28;20026;-75
2020/12/12 05:19:29;;;;;;;17.75;9.65;;;;;;;2.58;77.41;99564.94;5084172;28;20108;-75
2020/12/12 05:21:55;;;;;;;20.25;11.25;;;;;;;2.57;77.43;99566.63;5083008;28;20080;-75
2020/12/12 05:24:25;;;;;;;20.33;9.93;;;;;;;2.56;77.38;99564.03;5084104;28;20024;-74
2020/12/12 05:26:50;;;;;;;17.60;7.78;;;;;;;2.55;77.41;99570.03;5083574;28;20024;-74
2020/12/12 05:29:16;;;;;;;17.52;9.00;;;;;;;2.53;77.43;99566.56;5083824;28;20034;-74
2020/12/12 05:31:43;;;;;;;18.73;9.77;;;;;;;2.50;77.43;99572.53;5083842;28;20035;-74
2020/12/12 05:34:09;;;;;;;19.65;9.90;;;;;;;2.46;77.57;99565.66;5083802;28;20028;-74
2020/12/12 05:36:35;;;;;;;20.58;10.75;;;;;;;2.53;77.24;99567.44;5083876;28;20040;-73
2020/12/12 05:39:00;;;;;;;21.67;10.10;;;;;;;2.46;77.56;99563.09;5083656;28;20044;-76
2020/12/12 05:41:27;;;;;;;18.08;7.35;;;;;;;2.43;77.62;99557.94;5083469;28;20020;-75
2020/12/12 05:43:53;;;;;;;11.02;5.78;;;;;;;2.46;77.50;99561.38;5083794;28;20028;-74
2020/12/12 05:46:23;;;;;;;15.82;8.52;;;;;;;2.40;77.76;99561.31;5083615;28;20020;-74
2020/12/12 05:48:50;;;;;;;17.70;8.88;;;;;;;2.49;77.79;99570.81;5083569;28;20064;-75
2020/12/12 05:51:16;;;;;;;23.45;9.93;;;;;;;2.47;77.86;99562.25;5083426;28;20024;-74
2020/12/12 05:53:43;;;;;;;13.20;6.00;;;;;;;2.53;78.04;99566.56;5083678;28;20021;-75
2020/12/12 05:56:11;;;;;;;12.98;5.45;;;;;;;2.50;78.01;99569.09;5083334;28;20031;-73
2020/12/12 05:58:39;;;;;;;16.33;7.78;;;;;;;2.56;77.98;99574.28;5083409;28;20031;-75
2020/12/12 06:01:05;;;;;;;13.85;7.25;;;;;;;2.56;78.06;99567.47;5083356;28;20024;-74
2020/12/12 06:03:32;;;;;;;11.63;6.93;;;;;;;2.71;77.79;99581.31;5083089;28;20058;-74
2020/12/12 06:06:03;;;;;;;19.15;9.27;;;;;;;2.69;78.10;99576.16;5083300;28;20028;-74
2020/12/12 06:08:33;;;;;;;14.65;7.90;;;;;;;2.66;78.07;99572.69;5083174;28;20392;-74
2020/12/12 06:11:05;;;;;;;20.95;8.35;;;;;;;2.64;78.11;99574.38;5083112;28;20028;-74
2020/12/12 06:13:34;;;;;;;15.52;8.50;;;;;;;2.67;78.20;99575.28;5082831;28;20054;-74
2020/12/12 06:16:03;;;;;;;7.10;4.13;;;;;;;2.92;77.52;99565.28;5083640;28;20147;-75
2020/12/12 06:18:47;;;;;;;16.15;6.78;;;;;;;2.79;78.01;99571.13;5083278;28;20025;-74
2020/12/12 06:21:13;;;;;;;6.57;3.97;;;;;;;2.94;77.71;99565.28;5083193;28;20028;-75
2020/12/12 06:23:40;;;;;;;14.27;6.30;;;;;;;2.76;78.14;99584.78;5083462;28;20602;-74
2020/12/12 06:26:07;;;;;;;14.40;8.10;;;;;;;2.66;78.64;99570.13;5083476;28;20028;-75
2020/12/12 06:28:40;;;;;;;8.00;4.65;;;;;;;2.70;78.78;99571.91;5083073;28;20028;-74
2020/12/12 06:31:06;;;;;;;16.17;8.23;;;;;;;2.65;78.95;99574.38;5083303;28;20040;-76
2020/12/12 06:33:47;;;;;;;17.15;9.98;;;;;;;2.63;79.14;99572.66;5082842;28;20023;-75
2020/12/12 06:36:33;;;;;;;16.95;8.82;;;;;;;2.64;79.20;99575.25;5083108;28;20092;-74
2020/12/12 06:39:15;;;;;;;18.80;7.95;;;;;;;2.62;79.14;99571.78;5083181;28;20024;-74
2020/12/12 06:41:40;;;;;;;20.52;9.48;;;;;;;2.63;79.35;99570.97;5082907;28;20048;-74
2020/12/12 06:44:06;;;;;;;15.98;9.15;;;;;;;2.70;79.23;99588.13;5083170;28;20063;-75
2020/12/12 06:46:51;;;;;;;15.55;6.93;;;;;;;2.62;79.62;99571.78;5082942;28;20028;-75
2020/12/12 06:49:16;;;;;;;16.60;9.23;;;;;;;2.69;79.41;99570.16;5082952;28;20387;-75
2020/12/12 06:51:41;;;;;;;21.77;8.80;;;;;;;2.64;79.58;99572.69;5082828;28;20039;-74
2020/12/12 06:54:08;;;;;;;19.17;8.38;;;;;;;2.59;79.82;99561.50;5083081;28;20519;-77
2020/12/12 06:56:34;;;;;;;15.80;8.55;;;;;;;2.60;79.55;99569.22;5082778;28;20108;-75
2020/12/12 06:59:23;;;;;;;18.23;7.45;;;;;;;2.63;79.84;99572.66;5083047;28;20021;-76
2020/12/12 07:02:07;;;;;;;20.88;11.52;;;;;;;2.62;79.76;99576.91;5073049;28;20048;-75
2020/12/12 07:04:35;;;;;;;23.20;11.70;;;;;;;2.64;79.86;99582.06;5082769;28;20056;-74
2020/12/12 07:07:11;;;;;;;18.13;8.77;;;;;;;2.65;79.83;99583.81;5082837;28;20028;-75
2020/12/12 07:09:39;;;;;;;19.25;9.98;;;;;;;2.63;79.92;99588.03;5082942;28;20021;-76
2020/12/12 07:12:05;;;;;;;21.85;11.40;;;;;;;2.64;79.92;99590.63;5082580;28;20032;-75
2020/12/12 07:14:31;;;;;;;19.80;10.45;;;;;;;2.67;79.85;99590.66;5082855;28;20042;-75
2020/12/12 07:16:59;;;;;;;20.00;8.35;;;;;;;2.64;79.86;99588.06;5082725;28;20046;-75
2020/12/12 07:19:32;;;;;;;10.15;5.57;;;;;;;2.79;79.56;99597.63;5082766;28;20032;-75
2020/12/12 07:21:58;;;;;;;25.70;11.00;;;;;;;2.63;80.00;99599.16;5082725;28;20537;-76
2020/12/12 07:24:24;;;;;;;19.38;7.97;;;;;;;2.59;80.27;99602.50;5082500;28;20029;-76
2020/12/12 07:26:52;;;;;;;18.33;10.10;;;;;;;2.58;80.46;99598.25;5082483;28;20093;-75
2020/12/12 07:29:18;;;;;;;24.92;11.70;;;;;;;2.58;80.50;99605.94;5081842;28;20028;-76
2020/12/12 07:31:43;;;;;;;19.75;10.60;;;;;;;2.56;80.77;99602.47;5082647;28;20055;-74
2020/12/12 07:34:09;;;;;;;26.27;10.50;;;;;;;2.56;80.71;99603.34;5082488;28;20016;-75
2020/12/12 07:36:34;;;;;;;22.20;10.90;;;;;;;2.57;80.71;99604.22;5082410;28;20047;-69
2020/12/12 07:39:06;;;;;;;25.90;10.88;;;;;;;2.59;80.66;99610.19;5081465;28;20028;-74
2020/12/12 07:41:32;;;;;;;;;;;;;;;2.59;80.82;99617.88;5083028;28;20020;-74
2020/12/12 07:43:58;;;;;;;24.17;8.85;;;;;;;2.57;80.79;99612.75;5082587;28;19936;-75
2020/12/12 07:46:38;;;;;;;24.13;10.40;;;;;;;2.59;80.85;99610.19;5086079;28;20028;-75
2020/12/12 07:49:03;;;;;;;22.80;11.65;;;;;;;2.53;80.96;99602.44;5085157;28;20047;-74
2020/12/12 07:51:29;;;;;;;24.92;9.80;;;;;;;2.55;81.26;99616.16;5086115;28;20020;-73
2020/12/12 07:53:54;;;;;;;16.27;7.82;;;;;;;2.59;81.13;99611.06;5086805;28;20051;-73
2020/12/12 07:56:28;;;;;;;17.60;9.85;;;;;;;2.60;81.22;99617.06;5086397;28;20054;-74
2020/12/12 08:01:50;;;;;;;19.25;10.02;;;;;;;2.53;81.61;99628.94;5084067;28;20044;-74
2020/12/12 08:04:20;;;;;;;19.10;8.13;;;;;;;2.54;81.63;99622.13;5086312;28;20070;-75
2020/12/12 08:06:45;;;;;;;22.55;10.82;;;;;;;2.57;81.75;99625.56;5086136;28;20063;-73
2020/12/12 08:09:10;;;;;;;17.42;9.15;;;;;;;2.52;81.57;99619.53;5085925;28;20467;-75
2020/12/12 08:11:36;;;;;;;24.05;10.75;;;;;;;2.52;81.85;99624.66;5085618;28;20027;-73
2020/12/12 08:14:03;;;;;;;25.00;12.63;;;;;;;2.60;81.87;99632.44;5084821;28;20017;-74
2020/12/12 08:16:37;;;;;;;22.65;10.68;;;;;;;2.62;81.86;99637.59;5086006;28;20080;-75
2020/12/12 08:19:04;;;;;;;22.25;12.35;;;;;;;2.62;82.01;99642.72;5084461;28;20028;-74
2020/12/12 08:21:30;;;;;;;22.50;11.00;;;;;;;2.68;81.72;99640.22;5085723;28;20028;-73
2020/12/12 08:23:55;;;;;;;23.83;10.77;;;;;;;2.63;81.95;99640.16;5085817;28;20055;-73
2020/12/12 08:26:22;;;;;;;23.10;11.75;;;;;;;2.66;81.83;99640.19;5084027;28;20049;-73
2020/12/12 08:28:48;;;;;;;27.55;12.07;;;;;;;2.61;82.04;99631.59;5085733;28;20020;-74
2020/12/12 08:31:19;;;;;;;22.05;10.88;;;;;;;2.62;82.05;99630.75;5085591;28;20051;-73
2020/12/12 08:33:52;;;;;;;24.45;10.90;;;;;;;2.70;81.95;99644.50;5085943;28;20016;-73
2020/12/12 08:36:20;;;;;;;17.75;9.35;;;;;;;2.70;82.02;99643.66;5085440;28;20436;-72
2020/12/12 08:38:54;;;;;;;21.55;11.13;;;;;;;2.70;82.22;99652.19;5085243;28;20028;-68
2020/12/12 08:41:20;;;;;;;25.98;12.73;;;;;;;2.69;82.40;99650.50;5085428;28;20054;-72
2020/12/12 08:43:46;;;;;;;24.85;11.25;;;;;;;2.71;82.53;99641.13;5083678;28;20092;-74
2020/12/12 08:46:15;;;;;;;17.10;7.60;;;;;;;2.77;82.40;99659.97;5085436;28;20020;-74
2020/12/12 08:48:43;;;;;;;19.08;9.75;;;;;;;2.79;82.32;99658.28;5085006;28;20035;-75
2020/12/12 08:51:10;;;;;;;21.48;9.00;;;;;;;2.81;82.49;99661.72;5084861;28;20029;-74
2020/12/12 08:53:43;;;;;;;23.65;12.18;;;;;;;2.84;82.34;99656.63;5084940;28;20020;-74
2020/12/12 08:56:20;;;;;;;24.70;12.25;;;;;;;2.90;82.33;99666.09;5084806;28;20048;-75
2020/12/12 08:58:54;;;;;;;24.55;12.05;;;;;;;2.92;82.26;99665.28;5083524;28;20099;-75
2020/12/12 09:01:19;;;;;;;17.92;7.45;;;;;;;2.96;82.15;99658.47;5085811;28;20084;-75
2020/12/12 09:03:54;;;;;;;21.77;11.43;;;;;;;2.96;82.14;99648.19;5084605;28;20060;-75
2020/12/12 09:06:20;;;;;;;22.33;10.52;;;;;;;3.07;81.82;99659.44;5084787;28;20119;-75
2020/12/12 09:08:46;;;;;;;23.60;10.88;;;;;;;3.08;81.63;99658.59;5084570;28;20031;-75
2020/12/12 09:11:17;;;;;;;18.58;9.13;;;;;;;3.09;81.67;99662.03;5084718;28;20170;-76
2020/12/12 09:13:43;;;;;;;15.63;8.33;;;;;;;3.17;81.22;99662.97;5084581;28;20024;-75
2020/12/12 09:16:11;;;;;;;17.83;9.43;;;;;;;3.18;81.06;99661.28;5084648;28;20043;-76
2020/12/12 09:18:47;;;;;;;22.90;12.18;;;;;;;3.14;81.52;99662.94;5084375;28;20016;-77
2020/12/12 09:21:13;;;;;;;22.42;11.05;;;;;;;3.17;81.52;99662.97;5083039;28;20051;-77
2020/12/12 09:23:39;;;;;;;20.65;10.55;;;;;;;3.16;81.44;99645.00;5084300;28;20017;-77
2020/12/12 09:26:06;;;;;;;15.85;7.03;;;;;;;3.20;81.34;99652.72;5084415;28;20029;-77
2020/12/12 09:28:32;;;;;;;18.88;10.70;;;;;;;3.27;81.05;99648.53;5084171;28;20028;-75
2020/12/12 09:30:57;;;;;;;10.15;6.50;;;;;;;3.35;80.54;99653.72;5084203;28;20025;-71
2020/12/12 09:33:23;;;;;;;17.55;9.60;;;;;;;3.27;81.01;99660.47;5084187;28;20017;-77
2020/12/12 09:35:48;;;;;;;16.52;9.02;;;;;;;3.26;81.07;99662.19;5084189;28;20029;-73
2020/12/12 09:38:14;;;;;;;16.63;8.27;;;;;;;3.29;80.84;99657.06;5084138;28;20029;-73
2020/12/12 09:40:39;;;;;;;18.58;9.02;;;;;;;3.28;80.81;99657.06;5084093;28;20022;-73
2020/12/12 09:43:04;;;;;;;20.05;11.00;;;;;;;3.30;80.73;99660.50;5083481;28;20021;-74
2020/12/12 09:45:30;;;;;;;20.25;9.32;;;;;;;3.31;80.83;99651.94;5084217;28;20025;-74
2020/12/12 09:47:55;;;;;;;13.65;8.65;;;;;;;3.40;80.17;99646.94;5084224;28;20392;-74
2020/12/12 09:50:20;;;;;;;17.45;10.10;;;;;;;3.42;79.91;99652.91;5083491;28;20051;-74
2020/12/12 09:52:46;;;;;;;16.90;8.05;;;;;;;3.35;80.22;99646.88;5083463;28;20106;-73
2020/12/12 09:55:11;;;;;;;12.68;6.53;;;;;;;3.47;80.15;99655.53;5083756;28;20070;-74
2020/12/12 09:57:37;;;;;;;11.18;5.43;;;;;;;3.44;80.13;99646.09;5083198;28;20101;-73
2020/12/12 10:00:04;;;;;;;10.38;6.35;;;;;;;3.53;79.98;99647.03;5083534;28;20036;-72
2020/12/12 10:02:29;;;;;;;12.75;5.20;;;;;;;3.69;79.06;99651.41;5083628;28;20041;-72
2020/12/12 10:04:55;;;;;;;14.45;7.88;;;;;;;3.60;79.58;99648.78;5083746;28;20043;-73
2020/12/12 10:07:20;;;;;;;12.27;6.95;;;;;;;3.64;79.15;99663.38;5083289;28;20032;-72
2020/12/12 10:09:45;;;;;;;11.55;6.40;;;;;;;3.64;79.42;99653.13;5083697;28;20024;-75
2020/12/12 10:12:11;;;;;;;13.13;6.68;;;;;;;3.65;79.01;99648.81;5083340;28;20483;-72
2020/12/12 10:14:36;;;;;;;15.50;7.70;;;;;;;3.68;78.83;99667.69;5083907;28;20035;-72
2020/12/12 10:17:01;;;;;;;10.68;6.28;;;;;;;3.66;78.89;99665.97;5082520;28;20077;-73
2020/12/12 10:19:27;;;;;;;11.02;5.50;;;;;;;3.71;78.67;99664.25;5083912;28;20092;-72
2020/12/12 10:21:52;;;;;;;13.98;8.48;;;;;;;3.65;79.05;99672.78;5083645;28;20564;-73
2020/12/12 10:24:17;;;;;;;9.13;5.25;;;;;;;3.78;78.54;99676.31;5083648;28;20112;-74
2020/12/12 10:26:46;;;;;;;10.55;5.70;;;;;;;3.78;78.10;99667.75;5083955;28;20112;-72
2020/12/12 10:29:14;;;;;;;12.95;7.70;;;;;;;3.76;78.12;99665.16;5084450;28;20017;-73
2020/12/12 10:31:39;;;;;;;12.00;6.65;;;;;;;3.69;78.51;99660.84;5083787;28;20028;-73
2020/12/12 10:34:05;;;;;;;15.43;8.40;;;;;;;3.67;78.64;99660.84;5082413;28;20028;-73
2020/12/12 10:36:33;;;;;;;10.77;6.68;;;;;;;3.68;78.66;99649.72;5083428;28;20017;-73
2020/12/12 10:38:58;;;;;;;12.77;7.13;;;;;;;3.77;78.48;99668.59;5082917;28;20040;-74
2020/12/12 10:41:29;;;;;;;12.55;7.75;;;;;;;3.72;78.46;99660.88;5084418;28;20028;-73
2020/12/12 10:43:54;;;;;;;13.73;7.80;;;;;;;3.81;78.31;99660.06;5082665;28;20093;-73
2020/12/12 10:46:19;;;;;;;11.60;7.55;;;;;;;3.84;78.30;99665.22;5084741;28;20064;-74
2020/12/12 10:48:45;;;;;;;13.50;8.50;;;;;;;3.82;78.64;99661.78;5084189;28;20035;-73
2020/12/12 10:51:10;;;;;;;9.77;6.28;;;;;;;3.87;78.15;99662.69;5083490;28;20060;-73
2020/12/12 10:53:36;;;;;;;11.55;5.90;;;;;;;3.86;78.08;99670.38;5083512;28;20036;-72
2020/12/12 10:56:01;;;;;;;11.82;7.80;;;;;;;3.80;78.42;99660.94;5083612;28;20031;-71
2020/12/12 10:58:26;;;;;;;11.38;6.68;;;;;;;3.87;78.13;99669.50;5083846;28;20092;-72
2020/12/12 11:00:52;;;;;;;12.43;6.80;;;;;;;3.84;77.98;99666.09;5087271;28;20024;-71
2020/12/12 11:03:17;;;;;;;12.45;7.07;;;;;;;3.76;78.38;99664.31;5086599;28;20047;-72
2020/12/12 11:05:44;;;;;;;14.88;8.50;;;;;;;3.75;78.52;99666.03;5085271;28;20080;-73
2020/12/12 11:08:10;;;;;;;11.88;7.03;;;;;;;3.60;78.87;99656.50;5083523;28;20029;-71
2020/12/12 11:10:35;;;;;;;10.05;4.85;;;;;;;3.61;78.99;99662.50;5081785;28;20025;-72
2020/12/12 11:13:01;;;;;;;12.73;7.70;;;;;;;3.59;79.08;99657.34;5082733;28;20047;-73
2020/12/12 11:15:26;;;;;;;13.93;6.63;;;;;;;3.58;79.36;99663.31;5083301;28;20025;-72
2020/12/12 11:17:51;;;;;;;12.88;6.65;;;;;;;3.58;79.54;99669.31;5083122;28;20044;-73
2020/12/12 11:20:17;;;;;;;12.68;7.03;;;;;;;3.62;79.34;99665.06;5086488;28;20414;-73
2020/12/12 11:22:43;;;;;;;10.60;5.80;;;;;;;3.72;79.09;99677.13;5086920;28;20032;-73
2020/12/12 11:25:09;;;;;;;10.85;6.63;;;;;;;3.67;79.23;99677.94;5085738;28;20017;-74
2020/12/12 11:27:35;;;;;;;10.30;7.13;;;;;;;3.86;78.55;99667.81;5086472;28;20031;-73
2020/12/12 11:30:01;;;;;;;10.13;6.47;;;;;;;3.68;79.38;99674.50;5086625;28;20032;-73
2020/12/12 11:32:26;;;;;;;10.55;5.78;;;;;;;3.77;79.25;99672.00;5086290;28;20025;-73